Flight Track Log - Related Links

Times and Time Zones

All times are in EDT time to prevent confusion due to time zone crossing. See the N122SA flight status page for this flight to view local times or setup timezone preferences in your user account.

Time Position Orientation Groundspeed Altitude Reporting Facility
EDT Latitude Longitude Course Direction KTS MPH feet Rate Location/Type
Wed 03:48:09 PM 32.6333 -85.4000 146° Southeast 130 150 2,100  Level Atlanta TRACON
Wed 03:49:15 PM 32.6000 -85.4000 180° South 147 169 2,900 850 Climbing Atlanta TRACON
Wed 03:50:09 PM 32.5667 -85.3833 157° South 137 158 3,800 842 Climbing Atlanta TRACON
Wed 03:51:09 PM 32.5333 -85.3667 157° South 147 169 4,500 613 Climbing Atlanta TRACON
Wed 03:53:00 PM 32.4038 -85.2088 146° Southeast  Level Estimated
Wed 03:53:15 PM 32.4500 -85.3000 146° Southeast 146 168 5,700  Level Atlanta TRACON
Wed 03:55:15 PM 32.3833 -85.2500 148° Southeast 149 171 6,900 433 Climbing Atlanta TRACON
Wed 03:56:15 PM 32.3500 -85.2167 140° Southeast 161 185 7,000 53 Climbing Atlanta TRACON
Wed 03:57:09 PM 32.3167 -85.2000 157° South 165 190 7,000  Level Atlanta TRACON
Wed 03:58:09 PM 32.2833 -85.1667 140° Southeast 167 192 7,000  Level Atlanta TRACON
Wed 03:59:09 PM 32.2500 -85.1333 140° Southeast 165 190 7,000  Level Atlanta TRACON
Wed 04:00:09 PM 32.2000 -85.1000 151° Southeast 165 190 7,000  Level Atlanta TRACON
Wed 04:01:15 PM 32.1667 -85.0667 140° Southeast 165 190 7,000  Level Atlanta TRACON
Wed 04:03:16 PM 32.0864 -85.0039 146° Southeast 173 199 7,000  Level Jacksonville Center
Wed 04:04:16 PM 32.0472 -84.9736 147° Southeast 173 199 7,000  Level Jacksonville Center
Wed 04:05:16 PM 32.0122 -84.9433 144° Southeast 167 192 7,000  Level Jacksonville Center
Wed 04:06:16 PM 31.9708 -84.9106 146° Southeast 167 192 7,000  Level Jacksonville Center
Wed 04:07:16 PM 31.9339 -84.8803 145° Southeast 167 192 7,000  Level Jacksonville Center
Wed 04:08:16 PM 31.8967 -84.8503 146° Southeast 167 192 7,000 -50 Level Jacksonville Center
Wed 04:09:16 PM 31.8617 -84.8200 144° Southeast 167 192 6,900 -50 Descending Jacksonville Center
Wed 04:10:16 PM 31.8244 -84.7900 146° Southeast 167 192 6,900  Level Jacksonville Center
Wed 04:11:16 PM 31.7853 -84.7600 147° Southeast 167 192 6,900  Level Jacksonville Center
Wed 04:12:16 PM 31.7461 -84.7272 145° Southeast 167 192 6,900  Level Jacksonville Center
Wed 04:13:16 PM 31.7111 -84.6972 144° Southeast 167 192 6,900  Level Jacksonville Center
Wed 04:14:16 PM 31.6719 -84.6672 147° Southeast 167 192 6,900  Level Jacksonville Center
Wed 04:15:16 PM 31.6347 -84.6372 146° Southeast 162 186 6,900  Level Jacksonville Center
Wed 04:16:16 PM 31.5956 -84.6047 145° Southeast 162 186 6,900  Level Jacksonville Center
Wed 04:17:16 PM 31.5583 -84.5700 142° Southeast 162 186 6,900  Level Jacksonville Center
Wed 04:18:16 PM 31.5233 -84.5353 140° Southeast 162 186 6,900  Level Jacksonville Center
Wed 04:19:16 PM 31.4903 -84.4981 136° Southeast 167 192 6,900  Level Jacksonville Center
Wed 04:20:16 PM 31.4533 -84.4586 138° Southeast 167 192 6,900  Level Jacksonville Center
Wed 04:21:16 PM 31.4203 -84.4214 136° Southeast 167 192 6,900  Level Jacksonville Center
Wed 04:22:16 PM 31.3853 -84.3844 138° Southeast 167 192 6,900  Level Jacksonville Center
Wed 04:23:16 PM 31.3503 -84.3472 138° Southeast 167 192 6,900  Level Jacksonville Center
Wed 04:24:16 PM 31.3150 -84.3103 138° Southeast 167 192 6,900 54 Level Jacksonville Center
Wed 04:25:08 PM 31.2819 -84.2758 138° Southeast 168 193 7,000 86 Climbing Jacksonville Center
Wed 04:25:26 PM 31.2697 -84.2633 139° Southeast 167 192 7,000 -88 Level Jacksonville Center
Wed 04:26:16 PM 31.2492 -84.2389 135° Southeast 167 192 6,900  Descending Jacksonville Center
Wed 04:26:27 PM 31.2367 -84.2289 146° Southeast 167 192 7,000 92 Climbing Jacksonville Center
Wed 04:27:21 PM 31.2078 -84.1969 137° Southeast 167 192 7,000  Level Jacksonville Center
Wed 04:28:16 PM 31.1789 -84.1650 137° Southeast 167 192 7,000  Level Jacksonville Center
Wed 04:29:16 PM 31.1436 -84.1256 136° Southeast 167 192 7,000  Level Jacksonville Center
Wed 04:30:16 PM 31.1086 -84.0911 140° Southeast 167 192 7,000 47 Level Jacksonville Center
Wed 04:31:24 PM 31.0653 -84.0447 137° Southeast 168 193 7,100  Climbing Jacksonville Center
Wed 04:32:16 PM 31.0425 -84.0178 135° Southeast 162 186 7,000 -54 Descending Jacksonville Center
Wed 04:33:16 PM 31.0072 -83.9833 140° Southeast 162 186 7,000  Level Jacksonville Center
Wed 04:34:16 PM 30.9742 -83.9442 135° Southeast 162 186 7,000 86 Level Jacksonville Center
Wed 04:34:26 PM 30.9617 -83.9392 161° South 168 193 7,100 86 Climbing Jacksonville Center
Wed 04:35:26 PM 30.9264 -83.9000 136° Southeast 168 193 7,100  Level Jacksonville Center
Wed 04:36:27 PM 30.8914 -83.8658 140° Southeast 170 196 7,100  Level Jacksonville Center
Wed 04:37:28 PM 30.8561 -83.8292 138° Southeast 170 196 7,100  Level Jacksonville Center
Wed 04:38:29 PM 30.8208 -83.7875 135° Southeast 172 198 7,100  Level Jacksonville Center
Wed 04:39:29 PM 30.7856 -83.7511 138° Southeast 173 199 7,100  Level Jacksonville Center
Wed 04:40:30 PM 30.7483 -83.7119 138° Southeast 172 198 7,100  Level Jacksonville Center
Wed 04:41:31 PM 30.7150 -83.6778 139° Southeast 174 200 7,100  Level Jacksonville Center
Wed 04:42:32 PM 30.6778 -83.6367 136° Southeast 171 197 7,100 -65 Level Jacksonville Center
Wed 04:43:04 PM 30.6611 -83.6172 135° Southeast 170 196 7,000  Descending Jacksonville Center
Wed 04:43:32 PM 30.6403 -83.5975 141° Southeast 171 197 7,100  Climbing Jacksonville Center
Wed 04:44:04 PM 30.6239 -83.5806 138° Southeast 170 196 7,000  Descending Jacksonville Center
Wed 04:44:33 PM 30.6072 -83.5636 139° Southeast 170 196 7,100 -100 Climbing Jacksonville Center
Wed 04:45:04 PM 30.5886 -83.5417 135° Southeast 185 213 6,900 -132 Descending Jacksonville Center
Wed 04:46:04 PM 30.5553 -83.5028 135° Southeast 185 213 6,900  Level Jacksonville Center
Wed 04:47:04 PM 30.5178 -83.4664 140° Southeast 180 207 6,900  Level Jacksonville Center
Wed 04:48:04 PM 30.4825 -83.4325 140° Southeast 175 201 6,900  Level Jacksonville Center
Wed 04:49:04 PM 30.4472 -83.3939 137° Southeast 175 201 6,900  Level Jacksonville Center
Wed 04:50:04 PM 30.4139 -83.3575 137° Southeast 175 201 6,900  Level Jacksonville Center
Wed 04:51:04 PM 30.3786 -83.3236 140° Southeast 175 201 6,900  Level Jacksonville Center
Wed 04:52:04 PM 30.3431 -83.2850 137° Southeast 170 196 6,900 50 Level Jacksonville Center
Wed 04:53:04 PM 30.3078 -83.2486 138° Southeast 170 196 7,000  Climbing Jacksonville Center
Wed 04:54:04 PM 30.2744 -83.2125 137° Southeast 170 196 6,900 -50 Descending Jacksonville Center
Wed 04:55:04 PM 30.2369 -83.1786 142° Southeast 170 196 6,900  Level Jacksonville Center
Wed 04:56:04 PM 30.2036 -83.1425 137° Southeast 170 196 6,900  Level Jacksonville Center
Wed 04:57:04 PM 30.1683 -83.1039 137° Southeast 170 196 6,900  Level Jacksonville Center
Wed 04:58:04 PM 30.1328 -83.0703 141° Southeast 165 190 6,900  Level Jacksonville Center
Wed 04:59:04 PM 30.0994 -83.0319 135° Southeast 165 190 6,900  Level Jacksonville Center
Wed 05:00:04 PM 30.0661 -82.9958 137° Southeast 165 190 6,900  Level Jacksonville Center
Wed 05:01:04 PM 30.0306 -82.9622 141° Southeast 165 190 6,900  Level Jacksonville Center
Wed 05:02:04 PM 29.9950 -82.9261 139° Southeast 165 190 6,900 68 Level Jacksonville Center
Wed 05:02:32 PM 29.9742 -82.9117 149° Southeast 169 194 7,000  Climbing Jacksonville Center
Wed 05:03:04 PM 29.9597 -82.8903 128° Southeast 160 184 6,900  Descending Jacksonville Center
Wed 05:03:20 PM 29.9469 -82.8831 154° Southeast 170 196 7,000  Climbing Jacksonville Center
Wed 05:04:04 PM 29.9242 -82.8519 130° Southeast 160 184 6,900  Descending Jacksonville Center
Wed 05:04:21 PM 29.9136 -82.8447 149° Southeast 170 196 7,000  Climbing Jacksonville Center
Wed 05:05:04 PM 29.8886 -82.8158 135° Southeast 160 184 6,900  Descending Jacksonville Center
Wed 05:05:22 PM 29.8739 -82.8064 151° Southeast 170 196 7,000 100 Climbing Jacksonville Center
Wed 05:06:04 PM 29.8531 -82.7800 132° Southeast 160 184 7,000  Level Jacksonville Center
Wed 05:06:23 PM 29.8406 -82.7706 147° Southeast 169 194 7,000 -100 Level Jacksonville Center
Wed 05:07:04 PM 29.8175 -82.7442 135° Southeast 160 184 6,900  Descending Jacksonville Center
Wed 05:07:24 PM 29.8050 -82.7344 146° Southeast 169 194 7,000  Climbing Jacksonville Center
Wed 05:08:04 PM 29.7842 -82.7083 133° Southeast 160 184 6,900  Descending Jacksonville Center
Wed 05:08:25 PM 29.7717 -82.6989 147° Southeast 169 194 7,000  Climbing Jacksonville Center
Wed 05:09:04 PM 29.7486 -82.6725 135° Southeast 160 184 6,900  Descending Jacksonville Center
Wed 05:09:26 PM 29.7339 -82.6653 157° South 168 193 7,000 100 Climbing Jacksonville Center
Wed 05:10:04 PM 29.7131 -82.6367 130° Southeast 160 184 7,000  Level Jacksonville Center
Wed 05:10:27 PM 29.6983 -82.6272 151° Southeast 167 192 7,000 -100 Level Jacksonville Center
Wed 05:11:04 PM 29.6775 -82.6033 135° Southeast 160 184 6,900  Descending Jacksonville Center
Wed 05:11:28 PM 29.6608 -82.5889 143° Southeast 170 196 7,000  Climbing Jacksonville Center
Wed 05:12:04 PM 29.6419 -82.5653 133° Southeast 160 184 6,900  Descending Jacksonville Center
Wed 05:12:29 PM 29.6272 -82.5508 140° Southeast 173 199 7,000 70 Climbing Jacksonville Center
Wed 05:13:30 PM 29.5917 -82.5153 139° Southeast 172 198 7,000  Level Jacksonville Center
Wed 05:14:31 PM 29.5539 -82.4772 139° Southeast 171 197 7,000  Level Jacksonville Center
Wed 05:15:32 PM 29.5161 -82.4417 141° Southeast 174 200 7,000  Level Jacksonville Center
Wed 05:16:33 PM 29.4786 -82.4011 137° Southeast 173 199 7,000 -49 Level Jacksonville Center
Wed 05:17:34 PM 29.4408 -82.3656 141° Southeast 177 204 6,900 -295 Descending Jacksonville Center
Wed 05:18:35 PM 29.4008 -82.3253 139° Southeast 183 211 6,400 -492 Descending Jacksonville Center
Wed 05:19:36 PM 29.3653 -82.2872 137° Southeast 186 214 5,900 -492 Descending Jacksonville Center
Wed 05:20:37 PM 29.3256 -82.2494 140° Southeast 183 211 5,400 -439 Descending Jacksonville Center
Wed 05:21:39 PM 29.2856 -82.2069 137° Southeast 182 209 5,000 -197 Descending Jacksonville Center
Wed 05:22:39 PM 29.2500 -82.1714 139° Southeast 165 190 5,000  Level Jacksonville Center
Wed 05:23:40 PM 29.2164 -82.1383 139° Southeast 164 189 5,000  Level Jacksonville Center
Wed 05:24:41 PM 29.1786 -82.1031 141° Southeast 165 190 5,000  Level Jacksonville Center
Wed 05:25:48 PM 29.1406 -82.0628 137° Southeast 169 194 5,000  Level Jacksonville Center
Wed 05:28:10 PM 29.0667 -81.9833 137° Southeast 163 188 5,000  Level Orlando TRACON
Wed 05:29:16 PM 29.0167 -81.9333 139° Southeast 161 185 5,000  Level Orlando TRACON
Wed 05:29:58 PM 29.0000 -81.9167 139° Southeast 165 190 5,000  Level Orlando TRACON
Wed 05:30:59 PM 28.9667 -81.8833 139° Southeast 164 189 5,000  Level Orlando TRACON
Wed 05:32:05 PM 28.9333 -81.8500 139° Southeast 165 190 5,000  Level Orlando TRACON
Wed 05:33:05 PM 28.8833 -81.8167 150° Southeast 165 190 5,000  Level Orlando TRACON
Wed 05:34:05 PM 28.8500 -81.7667 127° Southeast 165 190 5,000 -100 Level Orlando TRACON
Wed 05:35:05 PM 28.8333 -81.7167 111° Southeast 173 199 4,800 -312 Descending Orlando TRACON
Wed 05:40:30 PM 28.7362 -81.4508 113° Southeast 160 184 3,000 -293 Descending FlightAware ADS-B
Wed 05:41:13 PM 28.7261 -81.4236 113° Southeast 160 184 3,000  Level FlightAware ADS-B
Wed 05:41:33 PM 28.7175 -81.4008 114° Southeast 161 185 3,000 -103 Level FlightAware ADS-B
Wed 05:42:11 PM 28.7063 -81.3713 113° Southeast 163 188 2,900 -327 Descending FlightAware ADS-B
Wed 05:42:28 PM 28.7010 -81.3574 114° Southeast 169 194 2,700 -514 Descending FlightAware ADS-B
Wed 05:42:46 PM 28.6954 -81.3429 113° Southeast 174 200 2,600 -462 Descending FlightAware ADS-B (KSFB)
Wed 05:43:07 PM 28.6890 -81.3253 113° Southeast 177 204 2,400 -600 Descending FlightAware ADS-B (KSFB)
Wed 05:43:26 PM 28.6825 -81.3080 113° Southeast 180 207 2,200 -615 Descending FlightAware ADS-B (KSFB)
Wed 05:43:46 PM 28.6760 -81.2912 113° Southeast 180 207 2,000 -600 Descending FlightAware ADS-B (KSFB)
Wed 05:44:06 PM 28.6702 -81.2759 114° Southeast 177 204 1,800 -558 Descending FlightAware ADS-B (KSFB)
Wed 05:44:29 PM 28.6619 -81.2541 114° Southeast 176 203 1,600 -429 Descending FlightAware ADS-B
Wed 05:44:34 PM 28.6602 -81.2503 122° Southeast 175 201 1,600  Level FlightAware ADS-B (KSFB)
Wed 05:44:42 PM 28.6565 -81.2455 133° Southeast 167 192 1,600  Level FlightAware ADS-B (KSFB)
Wed 05:45:17 PM 28.6382 -81.2311 167° South 155 178 1,600  Level FlightAware ADS-B
Wed 05:45:36 PM 28.6214 -81.2291 181° South 157 181 1,600  Level FlightAware ADS-B
Wed 05:45:56 PM 28.6068 -81.2292 180° South 159 183 1,600 -146 Level FlightAware ADS-B
Wed 05:46:17 PM 28.5899 -81.2297 190° South 163 188 1,500 -293 Descending FlightAware ADS-B
Wed 05:46:37 PM 28.5755 -81.2358 223° Southwest 160 184 1,400 -450 Descending FlightAware ADS-B
Wed 05:46:57 PM 28.5704 -81.2509 261° West 159 183 1,200 -450 Descending FlightAware ADS-B
Wed 05:47:17 PM 28.5685 -81.2651 259° West 117 135 1,100 -158 Descending FlightAware ADS-B
Wed 05:47:35 PM 28.5667 -81.2754 259° West 102 117 1,100 -146 Level FlightAware ADS-B
Wed 05:47:58 PM 28.5630 -81.2860 249° West 96 110 1,000 -698 Descending FlightAware ADS-B
Wed 05:48:18 PM 28.5591 -81.2959 247° West 101 116 600 -947 Descending FlightAware ADS-B
Wed 05:48:36 PM 28.5559 -81.3044 247° West 90 104 400 -667 Descending FlightAware ADS-B
Wed 05:55:00 PM 28.5333 -81.3167 198° South  Level FlightAware Approximate
Wed 05:56:00 PM 28.5455 -81.3329 41° Northeast  Level Estimated
Wed 05:57:00 PM 28.5455 -81.3329 130° Southeast  Level Estimated
Wed 05:58:00 PM 28.5455 -81.3329 130° Southeast  Level Estimated

Login

Don't have an account? Register now (free) for customized features, flight alerts, and more!